sensor_id;sensor_type;location;lat;lon;timestamp;pressure;altitude;pressure_sealevel;temperature;humidity
76257;BME280;65074;50.436;8.672;2022-11-24T00:01:39;98544.88;;;3.00;100.00
76257;BME280;65074;50.436;8.672;2022-11-24T00:04:05;98550.78;;;3.02;100.00
76257;BME280;65074;50.436;8.672;2022-11-24T00:06:34;98549.16;;;3.01;100.00
76257;BME280;65074;50.436;8.672;2022-11-24T00:09:00;98561.84;;;2.99;100.00
76257;BME280;65074;50.436;8.672;2022-11-24T00:11:30;98563.47;;;3.00;100.00
76257;BME280;65074;50.436;8.672;2022-11-24T00:13:57;98558.53;;;3.04;100.00
76257;BME280;65074;50.436;8.672;2022-11-24T00:16:27;98556.41;;;3.12;100.00
76257;BME280;65074;50.436;8.672;2022-11-24T00:18:56;98555.53;;;3.18;100.00
76257;BME280;65074;50.436;8.672;2022-11-24T00:21:22;98557.50;;;3.23;100.00
76257;BME280;65074;50.436;8.672;2022-11-24T00:23:49;98565.25;;;3.24;100.00
76257;BME280;65074;50.436;8.672;2022-11-24T00:26:16;98557.00;;;3.33;100.00
76257;BME280;65074;50.436;8.672;2022-11-24T00:28:42;98570.44;;;3.38;100.00
76257;BME280;65074;50.436;8.672;2022-11-24T00:31:23;98577.28;;;3.45;100.00
76257;BME280;65074;50.436;8.672;2022-11-24T00:33:50;98559.44;;;3.64;100.00
76257;BME280;65074;50.436;8.672;2022-11-24T00:36:17;98573.00;;;3.62;100.00
76257;BME280;65074;50.436;8.672;2022-11-24T00:38:43;98562.56;;;3.61;100.00
76257;BME280;65074;50.436;8.672;2022-11-24T00:41:09;98569.13;;;3.58;100.00
76257;BME280;65074;50.436;8.672;2022-11-24T00:43:34;98567.97;;;3.54;100.00
76257;BME280;65074;50.436;8.672;2022-11-24T00:46:00;98566.13;;;3.55;100.00
76257;BME280;65074;50.436;8.672;2022-11-24T00:48:25;98568.84;;;3.66;100.00
76257;BME280;65074;50.436;8.672;2022-11-24T00:51:02;98575.41;;;3.64;100.00
76257;BME280;65074;50.436;8.672;2022-11-24T00:53:28;98587.31;;;3.61;100.00
76257;BME280;65074;50.436;8.672;2022-11-24T00:55:54;98577.88;;;3.65;100.00
76257;BME280;65074;50.436;8.672;2022-11-24T00:58:20;98589.97;;;3.61;100.00
76257;BME280;65074;50.436;8.672;2022-11-24T01:00:46;98587.97;;;3.57;100.00
76257;BME280;65074;50.436;8.672;2022-11-24T01:03:12;98589.00;;;3.56;100.00
76257;BME280;65074;50.436;8.672;2022-11-24T01:05:38;98600.91;;;3.53;100.00
76257;BME280;65074;50.436;8.672;2022-11-24T01:08:05;98602.97;;;3.51;100.00
76257;BME280;65074;50.436;8.672;2022-11-24T01:10:31;98598.09;;;3.48;100.00
76257;BME280;65074;50.436;8.672;2022-11-24T01:12:58;98602.97;;;3.51;100.00
76257;BME280;65074;50.436;8.672;2022-11-24T01:15:23;98608.09;;;3.53;100.00
76257;BME280;65074;50.436;8.672;2022-11-24T01:17:48;98615.25;;;3.52;100.00
76257;BME280;65074;50.436;8.672;2022-11-24T01:20:14;98616.34;;;3.45;100.00
76257;BME280;65074;50.436;8.672;2022-11-24T01:22:40;98618.28;;;3.38;100.00
76257;BME280;65074;50.436;8.672;2022-11-24T01:25:09;98619.88;;;3.39;100.00
76257;BME280;65074;50.436;8.672;2022-11-24T01:27:35;98618.94;;;3.33;100.00
76257;BME280;65074;50.436;8.672;2022-11-24T01:30:00;98619.53;;;3.35;100.00
76257;BME280;65074;50.436;8.672;2022-11-24T01:32:29;98613.31;;;3.41;100.00
76257;BME280;65074;50.436;8.672;2022-11-24T01:34:54;98625.19;;;3.39;100.00
76257;BME280;65074;50.436;8.672;2022-11-24T01:37:20;98620.78;;;3.33;100.00
76257;BME280;65074;50.436;8.672;2022-11-24T01:39:45;98631.78;;;3.36;100.00
76257;BME280;65074;50.436;8.672;2022-11-24T01:42:10;98634.81;;;3.40;100.00
76257;BME280;65074;50.436;8.672;2022-11-24T01:44:36;98637.38;;;3.46;100.00
76257;BME280;65074;50.436;8.672;2022-11-24T01:47:05;98632.97;;;3.40;100.00
76257;BME280;65074;50.436;8.672;2022-11-24T01:49:39;98638.88;;;3.42;100.00
76257;BME280;65074;50.436;8.672;2022-11-24T01:54:35;98643.22;;;3.37;100.00
76257;BME280;65074;50.436;8.672;2022-11-24T01:57:08;98641.00;;;3.34;100.00
76257;BME280;65074;50.436;8.672;2022-11-24T01:59:37;98653.53;;;3.26;100.00
76257;BME280;65074;50.436;8.672;2022-11-24T02:02:06;98652.28;;;3.29;100.00
76257;BME280;65074;50.436;8.672;2022-11-24T02:04:32;98646.41;;;3.27;100.00
76257;BME280;65074;50.436;8.672;2022-11-24T02:07:00;98664.72;;;3.35;100.00
76257;BME280;65074;50.436;8.672;2022-11-24T02:09:43;98657.84;;;3.46;100.00
76257;BME280;65074;50.436;8.672;2022-11-24T02:12:11;98658.00;;;3.51;100.00
76257;BME280;65074;50.436;8.672;2022-11-24T02:14:37;98658.53;;;3.59;100.00
76257;BME280;65074;50.436;8.672;2022-11-24T02:17:05;98660.91;;;3.67;100.00
76257;BME280;65074;50.436;8.672;2022-11-24T02:19:40;98663.22;;;3.75;100.00
76257;BME280;65074;50.436;8.672;2022-11-24T02:22:12;98665.25;;;3.80;100.00
76257;BME280;65074;50.436;8.672;2022-11-24T02:24:48;98656.34;;;3.86;100.00
76257;BME280;65074;50.436;8.672;2022-11-24T02:27:14;98660.44;;;3.88;100.00
76257;BME280;65074;50.436;8.672;2022-11-24T02:29:39;98663.31;;;3.87;100.00
76257;BME280;65074;50.436;8.672;2022-11-24T02:32:06;98671.97;;;3.82;100.00
76257;BME280;65074;50.436;8.672;2022-11-24T02:34:33;98667.69;;;3.81;100.00
76257;BME280;65074;50.436;8.672;2022-11-24T02:36:59;98659.84;;;3.86;100.00
76257;BME280;65074;50.436;8.672;2022-11-24T02:39:24;98665.53;;;3.90;100.00
76257;BME280;65074;50.436;8.672;2022-11-24T02:41:56;98673.06;;;3.93;100.00
76257;BME280;65074;50.436;8.672;2022-11-24T02:44:29;98670.78;;;3.97;100.00
76257;BME280;65074;50.436;8.672;2022-11-24T02:47:01;98667.44;;;4.01;100.00
76257;BME280;65074;50.436;8.672;2022-11-24T02:49:26;98661.66;;;4.04;100.00
76257;BME280;65074;50.436;8.672;2022-11-24T02:51:52;98654.66;;;4.10;100.00
76257;BME280;65074;50.436;8.672;2022-11-24T02:54:17;98657.78;;;4.18;100.00
76257;BME280;65074;50.436;8.672;2022-11-24T02:56:42;98653.63;;;4.22;100.00
76257;BME280;65074;50.436;8.672;2022-11-24T02:59:08;98660.59;;;4.23;100.00
76257;BME280;65074;50.436;8.672;2022-11-24T03:01:33;98652.72;;;4.28;100.00
76257;BME280;65074;50.436;8.672;2022-11-24T03:03:58;98665.59;;;4.31;100.00
76257;BME280;65074;50.436;8.672;2022-11-24T03:06:24;98646.59;;;4.28;100.00
76257;BME280;65074;50.436;8.672;2022-11-24T03:08:49;98659.09;;;4.27;100.00
76257;BME280;65074;50.436;8.672;2022-11-24T03:11:14;98669.72;;;4.27;100.00
76257;BME280;65074;50.436;8.672;2022-11-24T03:13:40;98668.94;;;4.27;100.00
76257;BME280;65074;50.436;8.672;2022-11-24T03:16:07;98666.03;;;4.28;100.00
76257;BME280;65074;50.436;8.672;2022-11-24T03:18:33;98671.59;;;4.27;100.00
76257;BME280;65074;50.436;8.672;2022-11-24T03:20:59;98669.72;;;4.27;100.00
76257;BME280;65074;50.436;8.672;2022-11-24T03:23:24;98656.66;;;4.26;100.00
76257;BME280;65074;50.436;8.672;2022-11-24T03:25:52;98663.00;;;4.25;100.00
76257;BME280;65074;50.436;8.672;2022-11-24T03:28:18;98663.94;;;4.19;100.00
76257;BME280;65074;50.436;8.672;2022-11-24T03:30:47;98663.34;;;4.17;100.00
76257;BME280;65074;50.436;8.672;2022-11-24T03:33:12;98668.75;;;4.10;100.00
76257;BME280;65074;50.436;8.672;2022-11-24T03:35:37;98669.50;;;3.99;100.00
76257;BME280;65074;50.436;8.672;2022-11-24T03:38:06;98672.69;;;3.89;100.00
76257;BME280;65074;50.436;8.672;2022-11-24T03:40:32;98669.38;;;3.76;100.00
76257;BME280;65074;50.436;8.672;2022-11-24T03:42:57;98685.50;;;3.63;100.00
76257;BME280;65074;50.436;8.672;2022-11-24T03:45:22;98684.97;;;3.54;100.00
76257;BME280;65074;50.436;8.672;2022-11-24T03:47:50;98692.78;;;3.49;100.00
76257;BME280;65074;50.436;8.672;2022-11-24T03:50:16;98691.63;;;3.45;100.00
76257;BME280;65074;50.436;8.672;2022-11-24T03:52:41;98685.31;;;3.40;100.00
76257;BME280;65074;50.436;8.672;2022-11-24T03:55:09;98677.78;;;3.37;100.00
76257;BME280;65074;50.436;8.672;2022-11-24T03:57:37;98682.59;;;3.28;100.00
76257;BME280;65074;50.436;8.672;2022-11-24T04:00:05;98669.06;;;3.29;100.00
76257;BME280;65074;50.436;8.672;2022-11-24T04:02:31;98668.91;;;3.24;100.00
76257;BME280;65074;50.436;8.672;2022-11-24T04:04:56;98667.28;;;3.23;100.00
76257;BME280;65074;50.436;8.672;2022-11-24T04:07:26;98675.31;;;3.17;100.00
76257;BME280;65074;50.436;8.672;2022-11-24T04:09:51;98678.56;;;3.19;100.00
76257;BME280;65074;50.436;8.672;2022-11-24T04:12:20;98678.06;;;3.28;100.00
76257;BME280;65074;50.436;8.672;2022-11-24T04:15:04;98690.09;;;3.31;100.00
76257;BME280;65074;50.436;8.672;2022-11-24T04:17:30;98696.81;;;3.34;100.00
76257;BME280;65074;50.436;8.672;2022-11-24T04:19:55;98697.63;;;3.34;100.00
76257;BME280;65074;50.436;8.672;2022-11-24T04:22:20;98693.56;;;3.32;100.00
76257;BME280;65074;50.436;8.672;2022-11-24T04:24:46;98690.91;;;3.32;100.00
76257;BME280;65074;50.436;8.672;2022-11-24T04:27:11;98693.41;;;3.26;100.00
76257;BME280;65074;50.436;8.672;2022-11-24T04:29:36;98703.69;;;3.23;100.00
76257;BME280;65074;50.436;8.672;2022-11-24T04:32:02;98706.38;;;3.16;100.00
76257;BME280;65074;50.436;8.672;2022-11-24T04:34:27;98703.38;;;3.13;100.00
76257;BME280;65074;50.436;8.672;2022-11-24T04:36:52;98723.09;;;3.23;100.00
76257;BME280;65074;50.436;8.672;2022-11-24T04:39:18;98716.22;;;3.16;100.00
76257;BME280;65074;50.436;8.672;2022-11-24T04:41:43;98708.44;;;3.14;100.00
76257;BME280;65074;50.436;8.672;2022-11-24T04:44:10;98717.50;;;3.07;100.00
76257;BME280;65074;50.436;8.672;2022-11-24T04:46:36;98713.59;;;3.09;100.00
76257;BME280;65074;50.436;8.672;2022-11-24T04:49:01;98722.88;;;3.00;100.00
76257;BME280;65074;50.436;8.672;2022-11-24T04:51:26;98726.41;;;2.94;100.00
76257;BME280;65074;50.436;8.672;2022-11-24T04:53:52;98729.44;;;2.98;100.00
76257;BME280;65074;50.436;8.672;2022-11-24T04:56:17;98734.53;;;2.99;100.00
76257;BME280;65074;50.436;8.672;2022-11-24T04:58:42;98739.84;;;2.99;100.00
76257;BME280;65074;50.436;8.672;2022-11-24T05:01:10;98751.03;;;3.08;100.00
76257;BME280;65074;50.436;8.672;2022-11-24T05:03:36;98751.38;;;3.18;100.00
76257;BME280;65074;50.436;8.672;2022-11-24T05:06:05;98760.53;;;3.22;100.00
76257;BME280;65074;50.436;8.672;2022-11-24T05:08:31;98761.44;;;3.34;100.00
76257;BME280;65074;50.436;8.672;2022-11-24T05:10:56;98769.31;;;3.47;100.00
76257;BME280;65074;50.436;8.672;2022-11-24T05:13:22;98764.66;;;3.61;100.00
76257;BME280;65074;50.436;8.672;2022-11-24T05:15:47;98765.63;;;3.66;100.00
76257;BME280;65074;50.436;8.672;2022-11-24T05:18:16;98775.03;;;3.69;100.00
76257;BME280;65074;50.436;8.672;2022-11-24T05:20:42;98771.13;;;3.71;100.00
76257;BME280;65074;50.436;8.672;2022-11-24T05:23:10;98772.69;;;3.79;100.00
76257;BME280;65074;50.436;8.672;2022-11-24T05:25:36;98782.47;;;3.85;100.00
76257;BME280;65074;50.436;8.672;2022-11-24T05:28:03;98786.06;;;3.90;100.00
76257;BME280;65074;50.436;8.672;2022-11-24T05:30:29;98780.88;;;3.95;100.00
76257;BME280;65074;50.436;8.672;2022-11-24T05:32:55;98781.19;;;4.06;100.00
76257;BME280;65074;50.436;8.672;2022-11-24T05:35:21;98791.41;;;4.09;100.00
76257;BME280;65074;50.436;8.672;2022-11-24T05:37:47;98797.91;;;4.13;100.00
76257;BME280;65074;50.436;8.672;2022-11-24T05:40:13;98802.94;;;4.21;100.00
76257;BME280;65074;50.436;8.672;2022-11-24T05:42:38;98809.00;;;4.28;100.00
76257;BME280;65074;50.436;8.672;2022-11-24T05:45:12;98812.03;;;4.31;100.00
76257;BME280;65074;50.436;8.672;2022-11-24T05:47:39;98812.03;;;4.31;100.00
76257;BME280;65074;50.436;8.672;2022-11-24T05:50:06;98810.91;;;4.39;100.00
76257;BME280;65074;50.436;8.672;2022-11-24T05:52:32;98811.84;;;4.44;100.00
76257;BME280;65074;50.436;8.672;2022-11-24T05:54:58;98820.47;;;4.46;100.00
76257;BME280;65074;50.436;8.672;2022-11-24T05:57:23;98813.72;;;4.44;100.00
76257;BME280;65074;50.436;8.672;2022-11-24T05:59:48;98815.56;;;4.43;100.00
76257;BME280;65074;50.436;8.672;2022-11-24T06:02:14;98812.47;;;4.46;100.00
76257;BME280;65074;50.436;8.672;2022-11-24T06:04:39;98813.72;;;4.44;100.00
76257;BME280;65074;50.436;8.672;2022-11-24T06:07:09;98811.66;;;4.46;100.00
76257;BME280;65074;50.436;8.672;2022-11-24T06:09:39;98805.50;;;4.45;100.00
76257;BME280;65074;50.436;8.672;2022-11-24T06:12:06;98810.16;;;4.50;100.00
76257;BME280;65074;50.436;8.672;2022-11-24T06:14:32;98813.41;;;4.52;100.00
76257;BME280;65074;50.436;8.672;2022-11-24T06:16:58;98817.63;;;4.59;100.00
76257;BME280;65074;50.436;8.672;2022-11-24T06:19:23;98817.25;;;4.56;100.00
76257;BME280;65074;50.436;8.672;2022-11-24T06:21:49;98812.28;;;4.59;100.00
76257;BME280;65074;50.436;8.672;2022-11-24T06:24:14;98810.88;;;4.57;100.00
76257;BME280;65074;50.436;8.672;2022-11-24T06:26:40;98815.72;;;4.48;100.00
76257;BME280;65074;50.436;8.672;2022-11-24T06:29:06;98820.00;;;4.49;100.00
76257;BME280;65074;50.436;8.672;2022-11-24T06:31:32;98827.25;;;4.42;100.00
76257;BME280;65074;50.436;8.672;2022-11-24T06:33:58;98827.91;;;4.38;100.00
76257;BME280;65074;50.436;8.672;2022-11-24T06:36:25;98833.03;;;4.39;100.00
76257;BME280;65074;50.436;8.672;2022-11-24T06:38:51;98829.75;;;4.37;100.00
76257;BME280;65074;50.436;8.672;2022-11-24T06:41:17;98829.19;;;4.35;100.00
76257;BME280;65074;50.436;8.672;2022-11-24T06:43:43;98830.59;;;4.38;100.00
76257;BME280;65074;50.436;8.672;2022-11-24T06:46:10;98834.31;;;4.37;100.00
76257;BME280;65074;50.436;8.672;2022-11-24T06:48:35;98846.94;;;4.41;100.00
76257;BME280;65074;50.436;8.672;2022-11-24T06:51:06;98841.63;;;4.41;100.00
76257;BME280;65074;50.436;8.672;2022-11-24T06:53:33;98839.53;;;4.43;100.00
76257;BME280;65074;50.436;8.672;2022-11-24T06:56:06;98836.28;;;4.41;100.00
76257;BME280;65074;50.436;8.672;2022-11-24T06:58:31;98838.50;;;4.44;100.00
76257;BME280;65074;50.436;8.672;2022-11-24T07:00:57;98831.78;;;4.42;100.00
76257;BME280;65074;50.436;8.672;2022-11-24T07:03:22;98840.72;;;4.47;100.00
76257;BME280;65074;50.436;8.672;2022-11-24T07:05:48;98846.41;;;4.51;100.00
76257;BME280;65074;50.436;8.672;2022-11-24T07:08:13;98851.06;;;4.55;100.00
76257;BME280;65074;50.436;8.672;2022-11-24T07:10:39;98847.97;;;4.58;100.00
76257;BME280;65074;50.436;8.672;2022-11-24T07:13:07;98848.94;;;4.64;100.00
76257;BME280;65074;50.436;8.672;2022-11-24T07:15:33;98851.34;;;4.66;100.00
76257;BME280;65074;50.436;8.672;2022-11-24T07:17:58;98851.94;;;4.68;100.00
76257;BME280;65074;50.436;8.672;2022-11-24T07:20:24;98855.56;;;4.73;100.00
76257;BME280;65074;50.436;8.672;2022-11-24T07:22:54;98856.31;;;4.80;100.00
76257;BME280;65074;50.436;8.672;2022-11-24T07:25:20;98860.88;;;4.91;100.00
76257;BME280;65074;50.436;8.672;2022-11-24T07:27:45;98864.75;;;5.07;100.00
76257;BME280;65074;50.436;8.672;2022-11-24T07:30:11;98865.03;;;5.17;100.00
76257;BME280;65074;50.436;8.672;2022-11-24T07:32:36;98877.47;;;5.23;100.00
76257;BME280;65074;50.436;8.672;2022-11-24T07:35:02;98872.53;;;5.38;100.00
76257;BME280;65074;50.436;8.672;2022-11-24T07:37:27;98870.81;;;5.55;100.00
76257;BME280;65074;50.436;8.672;2022-11-24T07:39:53;98877.31;;;5.59;100.00
76257;BME280;65074;50.436;8.672;2022-11-24T07:42:18;98875.47;;;5.60;100.00
76257;BME280;65074;50.436;8.672;2022-11-24T07:44:44;98880.69;;;5.66;100.00
76257;BME280;65074;50.436;8.672;2022-11-24T07:47:09;98880.00;;;5.71;100.00
76257;BME280;65074;50.436;8.672;2022-11-24T07:49:34;98884.06;;;5.73;100.00
76257;BME280;65074;50.436;8.672;2022-11-24T07:52:00;98887.09;;;5.77;100.00
76257;BME280;65074;50.436;8.672;2022-11-24T07:54:25;98885.38;;;5.82;100.00
76257;BME280;65074;50.436;8.672;2022-11-24T07:56:50;98879.59;;;5.85;100.00
76257;BME280;65074;50.436;8.672;2022-11-24T07:59:16;98883.06;;;5.98;100.00
76257;BME280;65074;50.436;8.672;2022-11-24T08:01:41;98883.31;;;6.08;100.00
76257;BME280;65074;50.436;8.672;2022-11-24T08:04:07;98888.78;;;6.13;100.00
76257;BME280;65074;50.436;8.672;2022-11-24T08:06:37;98890.41;;;6.14;100.00
76257;BME280;65074;50.436;8.672;2022-11-24T08:09:03;98905.97;;;6.28;100.00
76257;BME280;65074;50.436;8.672;2022-11-24T08:11:28;98905.84;;;6.35;100.00
76257;BME280;65074;50.436;8.672;2022-11-24T08:13:55;98903.53;;;6.38;100.00
76257;BME280;65074;50.436;8.672;2022-11-24T08:16:21;98907.78;;;6.39;100.00
76257;BME280;65074;50.436;8.672;2022-11-24T08:18:52;98905.72;;;6.41;100.00
76257;BME280;65074;50.436;8.672;2022-11-24T08:21:19;98900.50;;;6.46;100.00
76257;BME280;65074;50.436;8.672;2022-11-24T08:23:44;98903.75;;;6.48;100.00
76257;BME280;65074;50.436;8.672;2022-11-24T08:26:13;98910.81;;;6.54;100.00
76257;BME280;65074;50.436;8.672;2022-11-24T08:28:41;98913.84;;;6.58;100.00
76257;BME280;65074;50.436;8.672;2022-11-24T08:31:10;98906.06;;;6.57;100.00
76257;BME280;65074;50.436;8.672;2022-11-24T08:33:36;98910.34;;;6.57;100.00
76257;BME280;65074;50.436;8.672;2022-11-24T08:38:28;98915.47;;;6.59;100.00
76257;BME280;65074;50.436;8.672;2022-11-24T08:40:58;98923.34;;;6.66;100.00
76257;BME280;65074;50.436;8.672;2022-11-24T08:43:24;98919.72;;;6.72;100.00
76257;BME280;65074;50.436;8.672;2022-11-24T08:45:49;98923.78;;;6.74;100.00
76257;BME280;65074;50.436;8.672;2022-11-24T08:48:14;98922.63;;;6.82;100.00
76257;BME280;65074;50.436;8.672;2022-11-24T08:50:40;98926.78;;;6.89;100.00
76257;BME280;65074;50.436;8.672;2022-11-24T08:53:05;98938.25;;;7.01;100.00
76257;BME280;65074;50.436;8.672;2022-11-24T08:55:30;98936.88;;;7.10;100.00
76257;BME280;65074;50.436;8.672;2022-11-24T08:57:56;98941.31;;;7.33;100.00
76257;BME280;65074;50.436;8.672;2022-11-24T09:00:21;98940.34;;;7.39;100.00
76257;BME280;65074;50.436;8.672;2022-11-24T09:02:57;98950.13;;;7.45;100.00
76257;BME280;65074;50.436;8.672;2022-11-24T09:05:23;98949.63;;;7.48;100.00
76257;BME280;65074;50.436;8.672;2022-11-24T09:07:48;98957.41;;;7.50;100.00
76257;BME280;65074;50.436;8.672;2022-11-24T09:10:14;98961.41;;;7.64;100.00
76257;BME280;65074;50.436;8.672;2022-11-24T09:12:39;98962.09;;;7.71;100.00
76257;BME280;65074;50.436;8.672;2022-11-24T09:15:05;98963.00;;;7.76;100.00
76257;BME280;65074;50.436;8.672;2022-11-24T09:17:31;98960.88;;;7.78;100.00
76257;BME280;65074;50.436;8.672;2022-11-24T09:19:56;98971.84;;;7.77;100.00
76257;BME280;65074;50.436;8.672;2022-11-24T09:22:22;98968.44;;;7.81;100.00
76257;BME280;65074;50.436;8.672;2022-11-24T09:24:47;98964.31;;;7.91;100.00
76257;BME280;65074;50.436;8.672;2022-11-24T09:27:12;98968.78;;;8.02;100.00
76257;BME280;65074;50.436;8.672;2022-11-24T09:29:38;98967.16;;;8.17;100.00
76257;BME280;65074;50.436;8.672;2022-11-24T09:32:03;98967.41;;;8.16;100.00
76257;BME280;65074;50.436;8.672;2022-11-24T09:34:29;98977.72;;;8.24;100.00
76257;BME280;65074;50.436;8.672;2022-11-24T09:36:54;98978.88;;;8.28;100.00
76257;BME280;65074;50.436;8.672;2022-11-24T09:39:20;98972.56;;;8.34;100.00
76257;BME280;65074;50.436;8.672;2022-11-24T09:42:00;98982.06;;;8.41;100.00
76257;BME280;65074;50.436;8.672;2022-11-24T09:44:41;98983.09;;;8.57;100.00
76257;BME280;65074;50.436;8.672;2022-11-24T09:47:21;98991.94;;;8.74;99.85
76257;BME280;65074;50.436;8.672;2022-11-24T09:49:58;98993.91;;;8.79;100.00
76257;BME280;65074;50.436;8.672;2022-11-24T09:52:42;98996.13;;;8.87;96.95
76257;BME280;65074;50.436;8.672;2022-11-24T09:55:24;98996.13;;;8.87;98.47
76257;BME280;65074;50.436;8.672;2022-11-24T09:58:05;99008.31;;;8.94;98.83
76257;BME280;65074;50.436;8.672;2022-11-24T10:00:37;99002.94;;;8.94;98.79
76257;BME280;65074;50.436;8.672;2022-11-24T10:03:03;99015.91;;;8.81;97.91
76257;BME280;65074;50.436;8.672;2022-11-24T10:05:33;99008.72;;;8.86;98.00
76257;BME280;65074;50.436;8.672;2022-11-24T10:08:21;99010.91;;;8.89;97.80
76257;BME280;65074;50.436;8.672;2022-11-24T10:11:05;99009.41;;;9.15;95.89
76257;BME280;65074;50.436;8.672;2022-11-24T10:14:00;99018.56;;;8.97;96.17
76257;BME280;65074;50.436;8.672;2022-11-24T10:19:13;99019.19;;;9.26;95.48
76257;BME280;65074;50.436;8.672;2022-11-24T10:22:00;99034.13;;;9.17;95.52
76257;BME280;65074;50.436;8.672;2022-11-24T10:24:46;99031.78;;;9.04;96.22
76257;BME280;65074;50.436;8.672;2022-11-24T10:27:18;99033.16;;;9.06;96.29
76257;BME280;65074;50.436;8.672;2022-11-24T10:29:48;99033.78;;;9.13;95.10
76257;BME280;65074;50.436;8.672;2022-11-24T10:32:27;99035.56;;;9.25;94.25
76257;BME280;65074;50.436;8.672;2022-11-24T10:34:58;99041.38;;;9.00;95.57
76257;BME280;65074;50.436;8.672;2022-11-24T10:37:29;99048.28;;;9.12;95.49
76257;BME280;65074;50.436;8.672;2022-11-24T10:40:52;99044.72;;;9.07;94.96
76257;BME280;65074;50.436;8.672;2022-11-24T10:42:58;99049.19;;;9.01;95.98
76257;BME280;65074;50.436;8.672;2022-11-24T10:45:27;99051.41;;;8.88;96.30
76257;BME280;65074;50.436;8.672;2022-11-24T10:47:53;99052.53;;;9.08;95.50
76257;BME280;65074;50.436;8.672;2022-11-24T10:58:43;99053.31;;;9.47;93.79
76257;BME280;65074;50.436;8.672;2022-11-24T11:03:58;99046.69;;;9.55;92.64
76257;BME280;65074;50.436;8.672;2022-11-24T11:06:26;99058.09;;;9.67;91.63
76257;BME280;65074;50.436;8.672;2022-11-24T11:11:33;99055.44;;;9.45;92.34
76257;BME280;65074;50.436;8.672;2022-11-24T11:14:04;99057.34;;;9.71;91.69
76257;BME280;65074;50.436;8.672;2022-11-24T11:19:41;99067.16;;;10.63;87.97
76257;BME280;65074;50.436;8.672;2022-11-24T11:24:41;99066.75;;;11.18;84.72
76257;BME280;65074;50.436;8.672;2022-11-24T11:29:44;99082.31;;;10.74;88.41
76257;BME280;65074;50.436;8.672;2022-11-24T11:32:18;99080.09;;;10.34;88.87
76257;BME280;65074;50.436;8.672;2022-11-24T11:34:44;99075.78;;;10.11;87.65
76257;BME280;65074;50.436;8.672;2022-11-24T11:37:11;99085.66;;;10.27;88.67
76257;BME280;65074;50.436;8.672;2022-11-24T11:39:47;99082.13;;;10.22;88.40
76257;BME280;65074;50.436;8.672;2022-11-24T11:44:54;99075.53;;;10.39;86.79
76257;BME280;65074;50.436;8.672;2022-11-24T11:47:26;99077.47;;;10.17;86.83
76257;BME280;65074;50.436;8.672;2022-11-24T11:49:52;99071.00;;;9.92;87.06
76257;BME280;65074;50.436;8.672;2022-11-24T11:53:04;99082.41;;;9.77;88.79
76257;BME280;65074;50.436;8.672;2022-11-24T11:55:45;99086.97;;;9.76;88.38
76257;BME280;65074;50.436;8.672;2022-11-24T11:58:22;99090.69;;;9.75;91.17
76257;BME280;65074;50.436;8.672;2022-11-24T12:01:08;99088.38;;;9.84;89.97
76257;BME280;65074;50.436;8.672;2022-11-24T12:03:45;99092.28;;;9.71;90.44
76257;BME280;65074;50.436;8.672;2022-11-24T12:09:44;99097.63;;;9.50;93.75
76257;BME280;65074;50.436;8.672;2022-11-24T12:17:41;99103.13;;;9.81;90.91
76257;BME280;65074;50.436;8.672;2022-11-24T12:30:26;99114.13;;;10.02;90.31
76257;BME280;65074;50.436;8.672;2022-11-24T12:33:10;99116.41;;;10.36;89.42
76257;BME280;65074;50.436;8.672;2022-11-24T12:35:45;99111.16;;;10.78;88.48
76257;BME280;65074;50.436;8.672;2022-11-24T12:38:34;99125.94;;;10.49;87.59
76257;BME280;65074;50.436;8.672;2022-11-24T12:41:18;99128.47;;;10.61;85.66
76257;BME280;65074;50.436;8.672;2022-11-24T12:43:50;99125.41;;;10.79;84.61
76257;BME280;65074;50.436;8.672;2022-11-24T12:46:21;99123.16;;;11.02;84.78
76257;BME280;65074;50.436;8.672;2022-11-24T12:51:37;99114.47;;;13.07;74.95
76257;BME280;65074;50.436;8.672;2022-11-24T12:54:08;99114.41;;;14.16;71.04
76257;BME280;65074;50.436;8.672;2022-11-24T12:56:58;99120.66;;;12.87;74.49
76257;BME280;65074;50.436;8.672;2022-11-24T12:59:36;99113.28;;;13.58;71.34
76257;BME280;65074;50.436;8.672;2022-11-24T13:05:27;99117.53;;;14.43;65.13
76257;BME280;65074;50.436;8.672;2022-11-24T13:07:58;99115.13;;;15.09;61.60
76257;BME280;65074;50.436;8.672;2022-11-24T13:10:27;99117.75;;;13.93;64.83
76257;BME280;65074;50.436;8.672;2022-11-24T13:12:59;99122.56;;;13.17;64.67
76257;BME280;65074;50.436;8.672;2022-11-24T13:15:26;99127.66;;;12.58;67.35
76257;BME280;65074;50.436;8.672;2022-11-24T13:17:56;99120.88;;;12.35;69.38
76257;BME280;65074;50.436;8.672;2022-11-24T13:20:30;99130.25;;;11.60;68.97
76257;BME280;65074;50.436;8.672;2022-11-24T13:23:02;99133.47;;;11.52;71.11
76257;BME280;65074;50.436;8.672;2022-11-24T13:25:30;99136.69;;;11.49;72.57
76257;BME280;65074;50.436;8.672;2022-11-24T13:27:58;99137.31;;;11.66;70.87
76257;BME280;65074;50.436;8.672;2022-11-24T13:33:26;99137.41;;;11.82;74.74
76257;BME280;65074;50.436;8.672;2022-11-24T13:41:10;99149.88;;;11.51;71.55
76257;BME280;65074;50.436;8.672;2022-11-24T13:43:35;99153.13;;;11.53;70.72
76257;BME280;65074;50.436;8.672;2022-11-24T13:46:02;99158.06;;;11.24;72.42
76257;BME280;65074;50.436;8.672;2022-11-24T13:53:39;99170.69;;;11.24;72.70
76257;BME280;65074;50.436;8.672;2022-11-24T13:58:39;99175.28;;;10.91;73.30
76257;BME280;65074;50.436;8.672;2022-11-24T14:06:44;99171.13;;;10.52;74.64
76257;BME280;65074;50.436;8.672;2022-11-24T14:11:54;99170.78;;;10.43;75.88
76257;BME280;65074;50.436;8.672;2022-11-24T14:14:21;99163.38;;;10.07;77.28
76257;BME280;65074;50.436;8.672;2022-11-24T14:16:48;99161.91;;;10.16;79.32
76257;BME280;65074;50.436;8.672;2022-11-24T14:19:17;99154.72;;;10.05;78.25
76257;BME280;65074;50.436;8.672;2022-11-24T14:21:42;99154.66;;;10.00;79.43
76257;BME280;65074;50.436;8.672;2022-11-24T14:24:28;99158.66;;;9.98;79.31
76257;BME280;65074;50.436;8.672;2022-11-24T14:26:55;99153.97;;;10.10;81.60
76257;BME280;65074;50.436;8.672;2022-11-24T14:29:22;99156.03;;;10.03;79.06
76257;BME280;65074;50.436;8.672;2022-11-24T14:31:59;99166.50;;;9.99;81.91